.
WxDataArchive / Data Records for 2013-07-26
2013-07-25 July 2013 2013-07-27

Data Records for Friday, 26 July 2013

Time	Temp	Chill	HIndex	Humid	Dewpt	 Wind 	HiWind	WindDir	Rain 	Barom 
-----	----	-----	------	-----	-----	------	------	-------	-----	----- 
00:00	64.3	64.3	64.3	76	56.6	0	0	---	0.00	30.083 
00:05	64.2	64.2	64.2	77	56.8	0	0	---	0.00	30.083 
00:10	63.9	63.9	63.9	77	56.5	0	0	---	0.00	30.083 
00:15	63.7	63.7	63.7	77	56.3	0	0	---	0.00	30.082 
00:20	63.5	63.5	63.5	78	56.5	0	0	---	0.00	30.082 
00:25	63.2	63.2	63.2	79	56.6	0	0	---	0.00	30.082 
00:30	63.1	63.1	63.1	79	56.5	0	0	---	0.00	30.083 
00:35	62.9	62.9	62.9	79	56.3	0	0	---	0.00	30.083 
00:40	62.6	62.6	62.6	80	56.3	0	0	---	0.00	30.083 
00:45	62.4	62.4	62.4	80	56.1	0	0	---	0.00	30.084 
00:50	62.3	62.3	62.3	81	56.4	0	0	---	0.00	30.084 
00:55	62.3	62.3	62.3	81	56.4	0	0	---	0.00	30.084 
01:00	62.3	62.3	62.3	82	56.7	0	0	---	0.00	30.084 
01:05	62.3	62.3	62.3	81	56.4	0	0	---	0.00	30.084 
01:10	62.3	62.3	62.3	81	56.4	0	0	---	0.00	30.084 
01:15	62.1	62.1	62.1	81	56.2	0	0	---	0.00	30.077 
01:20	62.0	62.0	62.0	81	56.1	0	0	---	0.00	30.077 
01:25	62.0	62.0	62.0	82	56.4	0	0	---	0.00	30.077 
01:30	61.8	61.8	61.8	83	56.6	0	0	---	0.00	30.068 
01:35	61.6	61.6	61.6	83	56.4	0	0	---	0.00	30.068 
01:40	61.3	61.3	61.3	84	56.4	0	0	---	0.00	30.068 
01:45	61.2	61.2	61.2	84	56.3	0	0	---	0.00	30.067 
01:50	61.0	61.0	61.0	84	56.1	0	0	---	0.00	30.067 
01:55	60.7	60.7	60.7	84	55.8	0	0	---	0.00	30.067 
02:00	60.5	60.5	60.5	85	56.0	0	0	---	0.00	30.068 
02:05	60.4	60.4	60.4	85	55.9	0	0	---	0.00	30.068 
02:10	60.2	60.2	60.2	85	55.7	0	0	---	0.00	30.068 
02:15	60.1	60.1	60.1	86	55.9	0	0	---	0.00	30.068 
02:20	59.9	59.9	59.9	86	55.7	0	0	---	0.00	30.068 
02:25	59.9	59.9	59.9	86	55.7	0	0	---	0.00	30.068 
02:30	59.8	59.8	59.8	87	55.9	0	0	---	0.00	30.068 
02:35	59.6	59.6	59.6	87	55.7	0	0	---	0.00	30.068 
02:40	59.6	59.6	59.6	88	56.0	0	0	---	0.00	30.068 
02:45	59.3	59.3	59.3	88	55.7	0	0	---	0.00	30.064 
02:50	59.2	59.2	59.2	88	55.6	0	0	---	0.00	30.064 
02:55	59.0	59.0	59.0	88	55.4	0	0	---	0.00	30.064 
03:00	58.9	58.9	58.9	89	55.7	0	0	---	0.00	30.064 
03:05	58.7	58.7	58.7	89	55.5	0	0	---	0.00	30.064 
03:10	58.7	58.7	58.7	89	55.5	0	0	---	0.00	30.064 
03:15	58.6	58.6	58.6	89	55.4	0	0	---	0.00	30.056 
03:20	58.6	58.6	58.6	89	55.4	0	0	---	0.00	30.056 
03:25	58.4	58.4	58.4	90	55.5	0	0	---	0.00	30.056 
03:30	58.3	58.3	58.3	90	55.4	0	0	---	0.00	30.052 
03:35	58.3	58.3	58.3	90	55.4	0	0	---	0.00	30.052 
03:40	58.1	58.1	58.1	90	55.2	0	0	---	0.00	30.052 
03:45	58.0	58.0	58.0	90	55.1	0	0	---	0.00	30.051 
03:50	58.0	58.0	58.0	90	55.1	0	0	---	0.00	30.051 
03:55	57.8	57.8	57.8	90	54.9	0	0	---	0.00	30.051 
04:00	57.6	57.6	57.6	91	55.0	0	0	---	0.00	30.046 
04:05	57.6	57.6	57.6	91	55.0	0	0	---	0.00	30.046 
04:10	57.6	57.6	57.6	91	55.0	0	0	---	0.00	30.046 
04:15	57.5	57.5	57.5	91	54.9	0	0	---	0.00	30.053 
04:20	57.5	57.5	57.5	91	54.9	0	0	---	0.00	30.053 
04:25	57.5	57.5	57.5	91	54.9	0	0	---	0.00	30.053 
04:30	57.3	57.3	57.3	91	54.7	0	0	---	0.00	30.056 
04:35	57.3	57.3	57.3	92	55.0	0	0	---	0.00	30.056 
04:40	57.3	57.3	57.3	92	55.0	0	0	---	0.00	30.056 
04:45	57.2	57.2	57.2	92	54.9	0	0	---	0.00	30.058 
04:50	57.2	57.2	57.2	92	54.9	0	0	---	0.00	30.058 
04:55	57.2	57.2	57.2	92	54.9	0	0	---	0.00	30.058 
05:00	57.0	57.0	57.0	92	54.7	0	0	---	0.00	30.058 
05:05	57.0	57.0	57.0	92	54.7	0	0	---	0.00	30.058 
05:10	56.9	56.9	56.9	92	54.6	0	0	---	0.00	30.058 
05:15	56.7	56.7	56.7	92	54.4	0	0	---	0.00	30.057 
05:20	56.7	56.7	56.7	92	54.4	0	0	---	0.00	30.057 
05:25	56.6	56.6	56.6	92	54.3	0	0	---	0.00	30.057 
05:30	56.6	56.6	56.6	92	54.3	0	0	---	0.00	30.047 
05:35	56.5	56.5	56.5	92	54.2	0	0	---	0.00	30.047 
05:40	56.5	56.5	56.5	92	54.2	0	0	---	0.00	30.047 
05:45	56.3	56.3	56.3	92	54.0	0	0	---	0.00	30.047 
05:50	56.3	56.3	56.3	92	54.0	0	0	---	0.00	30.047 
05:55	56.2	56.2	56.2	92	53.9	0	0	---	0.00	30.047 
06:00	56.2	56.2	56.2	92	53.9	0	0	---	0.00	30.043 
06:05	56.0	56.0	56.0	93	54.0	0	0	---	0.00	30.043 
06:10	55.9	55.9	55.9	93	53.9	0	0	---	0.00	30.043 
06:15	55.9	55.9	55.9	93	53.9	0	0	---	0.00	30.047 
06:20	55.9	55.9	55.9	93	53.9	0	0	---	0.00	30.047 
06:25	55.7	55.7	55.7	93	53.7	0	0	---	0.00	30.047 
06:30	55.7	55.7	55.7	93	53.7	0	0	---	0.00	30.055 
06:35	55.7	55.7	55.7	93	53.7	0	0	---	0.00	30.055 
06:40	55.7	55.7	55.7	93	53.7	0	0	---	0.00	30.055 
06:45	55.7	55.7	55.7	93	53.7	0	0	---	0.00	30.056 
06:50	55.7	55.7	55.7	93	53.7	0	0	---	0.00	30.056 
06:55	55.9	55.9	55.9	93	53.9	0	0	---	0.00	30.056 
07:00	56.0	56.0	56.0	94	54.3	0	0	---	0.00	30.059 
07:05	56.2	56.2	56.2	94	54.5	0	0	---	0.00	30.059 
07:10	56.3	56.3	56.3	94	54.6	0	0	---	0.00	30.059 
07:15	56.6	56.6	56.6	94	54.9	0	0	---	0.00	30.062 
07:20	56.9	56.9	56.9	94	55.2	0	0	---	0.00	30.062 
07:25	57.3	57.3	57.3	94	55.6	0	0	---	0.00	30.062 
07:30	57.8	57.8	57.8	94	56.1	0	0	---	0.00	30.060 
07:35	58.1	58.1	58.1	94	56.4	0	0	---	0.00	30.060 
07:40	58.4	58.4	58.4	94	56.7	0	0	---	0.00	30.060 
07:45	58.6	58.6	58.6	94	56.9	0	0	---	0.00	30.061 
07:50	58.7	58.7	58.7	94	57.0	0	0	---	0.00	30.061 
07:55	59.0	59.0	59.0	94	57.3	0	0	---	0.00	30.061 
08:00	59.5	59.5	59.5	94	57.8	0	0	---	0.00	30.063 
08:05	60.2	60.2	60.2	93	58.2	0	0	---	0.00	30.063 
08:10	61.3	61.3	61.3	92	59.0	0	0	---	0.00	30.063 
08:15	62.3	62.3	62.3	90	59.3	0	0	---	0.00	30.066 
08:20	63.2	63.2	63.2	88	59.6	0	1	45	0.00	30.066 
08:25	63.7	63.7	63.7	85	59.1	0	0	---	0.00	30.066 
08:30	64.3	64.3	64.3	83	59.0	0	0	---	0.00	30.066 
08:35	65.5	65.5	65.5	77	58.1	0	2	45	0.00	30.066 
08:40	66.6	66.6	66.6	73	57.7	0	2	45	0.00	30.066 
08:45	67.1	67.1	67.1	69	56.6	0	1	45	0.00	30.059 
08:50	67.1	67.1	67.1	69	56.6	0	1	45	0.00	30.059 
08:55	66.9	66.9	66.9	68	56.0	0	1	45	0.00	30.059 
09:00	66.9	66.9	66.9	70	56.8	0	1	45	0.00	30.054 
09:05	67.1	67.1	67.1	69	56.6	0	1	45	0.00	30.054 
09:10	67.3	67.3	67.3	69	56.8	0	1	45	0.00	30.054 
09:15	67.6	67.6	67.6	68	56.7	0	1	45	0.00	30.057 
09:20	68.1	68.1	68.1	67	56.7	0	2	45	0.00	30.057 
09:25	68.9	68.9	68.9	65	56.6	0	3	45	0.00	30.057 
09:30	69.4	69.4	69.4	65	57.1	0	2	45	0.00	30.057 
09:35	70.1	70.1	70.1	65	57.8	0	2	45	0.00	30.057 
09:40	70.9	70.9	70.9	63	57.7	0	2	45	0.00	30.057 
09:45	71.6	71.6	71.6	61	57.4	0	2	45	0.00	30.052 
09:50	72.3	72.3	72.3	58	56.7	1	2	45	0.00	30.052 
09:55	72.1	72.1	72.1	62	58.3	1	2	45	0.00	30.052 
10:00	72.7	72.7	72.7	58	57.1	0	3	45	0.00	30.051 
10:05	73.3	73.3	73.3	57	57.1	0	2	45	0.00	30.051 
10:10	73.9	73.9	73.9	54	56.2	1	2	45	0.00	30.051 
10:15	73.9	73.9	73.9	53	55.7	1	4	90	0.00	30.052 
10:20	73.9	73.9	73.9	54	56.2	1	3	90	0.00	30.052 
10:25	74.2	74.2	74.2	54	56.5	1	3	90	0.00	30.052 
10:30	74.4	74.4	74.4	54	56.7	0	2	90	0.00	30.052 
10:35	74.2	74.2	74.2	55	57.0	0	1	90	0.00	30.052 
10:40	74.0	74.0	74.0	54	56.3	1	3	90	0.00	30.052 
10:45	73.9	73.9	73.9	56	57.2	0	2	90	0.00	30.054 
10:50	73.9	73.9	73.9	55	56.7	0	2	90	0.00	30.054 
10:55	73.5	73.5	73.5	55	56.3	0	2	90	0.00	30.054 
11:00	73.0	73.0	73.0	55	55.9	0	2	90	0.00	30.057 
11:05	72.8	72.8	72.8	56	56.2	0	2	90	0.00	30.057 
11:10	73.0	73.0	73.0	57	56.9	0	2	90	0.00	30.057 
11:15	73.7	73.7	73.7	55	56.5	0	1	90	0.00	30.058 
11:20	74.4	74.4	74.4	54	56.7	0	2	90	0.00	30.058 
11:25	74.9	74.9	74.9	52	56.1	1	4	90	0.00	30.058 
11:30	75.4	75.4	77.7	55	58.1	0	2	90	0.00	30.053 
11:35	76.3	76.3	78.2	48	55.1	1	4	90	0.00	30.053 
11:40	76.7	76.7	78.4	50	56.6	1	3	90	0.00	30.053 
11:45	76.7	76.7	78.4	50	56.6	1	5	90	0.00	30.052 
11:50	76.3	76.3	78.2	51	56.8	1	3	90	0.00	30.052 
11:55	75.8	75.8	78.0	48	54.7	1	4	270	0.00	30.052 
12:00	75.6	75.6	77.9	53	57.2	0	3	270	0.00	30.048 
12:05	76.5	76.5	78.3	49	55.9	1	4	90	0.00	30.048 
12:10	77.4	77.4	78.8	50	57.3	1	3	90	0.00	30.048 
12:15	77.9	77.9	79.1	49	57.2	1	3	90	0.00	30.044 
12:20	77.2	77.2	78.6	46	54.8	1	3	90	0.00	30.044 
12:25	76.1	76.1	78.1	48	55.0	0	2	22	0.00	30.044 
12:30	75.6	75.6	77.9	49	55.1	0	2	22	0.00	30.036 
12:35	75.4	75.4	77.8	49	54.9	1	3	22	0.00	30.036 
12:40	74.9	74.9	74.9	52	56.1	0	2	0	0.00	30.036 
12:45	74.7	74.7	74.7	52	55.9	1	3	0	0.00	30.032 
12:50	74.7	74.7	74.7	50	54.8	0	2	112	0.00	30.032 
12:55	74.9	74.9	74.9	50	55.0	0	3	135	0.00	30.032 
13:00	75.6	75.6	77.9	50	55.6	1	3	112	0.00	30.024 
13:05	76.0	76.0	78.1	49	55.4	1	3	112	0.00	30.024 
13:10	76.1	76.1	78.1	51	56.6	0	2	315	0.00	30.024 
13:15	76.1	76.1	78.1	50	56.1	1	5	315	0.00	30.023 
13:20	76.3	76.3	78.2	51	56.8	0	1	112	0.00	30.023 
13:25	76.3	76.3	78.2	49	55.7	1	3	292	0.00	30.023 
13:30	76.3	76.3	78.2	49	55.7	1	3	45	0.00	30.023 
13:35	76.0	76.0	78.1	50	56.0	1	2	45	0.00	30.023 
13:40	75.8	75.8	78.0	50	55.8	0	2	45	0.00	30.023 
13:45	75.8	75.8	78.0	52	56.9	0	2	45	0.00	30.020 
13:50	75.6	75.6	77.9	53	57.2	0	2	292	0.00	30.020 
13:55	75.6	75.6	77.9	52	56.7	1	3	90	0.00	30.020 
14:00	75.8	75.8	78.0	54	57.9	0	2	22	0.00	30.015 
14:05	75.8	75.8	78.0	50	55.8	1	3	90	0.00	30.015 
14:10	75.8	75.8	78.0	51	56.4	0	4	45	0.00	30.015 
14:15	76.1	76.1	78.1	53	57.7	1	4	45	0.00	30.010 
14:20	76.5	76.5	78.3	49	55.9	2	5	90	0.00	30.010 
14:25	76.3	76.3	78.2	50	56.3	1	6	68	0.00	30.010 
14:30	76.3	76.3	78.2	52	57.4	1	3	68	0.00	30.008 
14:35	76.5	76.5	78.4	52	57.5	1	3	90	0.00	30.008 
14:40	76.5	76.5	78.3	51	57.0	1	3	90	0.00	30.008 
14:45	76.5	76.5	78.4	52	57.5	0	4	68	0.00	30.003 
14:50	76.5	76.5	78.4	53	58.1	1	3	90	0.00	30.003 
14:55	76.3	76.3	78.2	52	57.4	1	4	90	0.00	30.003 
15:00	76.3	76.3	78.2	52	57.4	1	4	90	0.00	29.999 
15:05	76.0	76.0	78.1	51	56.5	1	3	112	0.00	29.999 
15:10	75.6	75.6	77.9	51	56.2	1	4	112	0.00	29.999 
15:15	75.4	75.4	77.8	53	57.1	0	1	112	0.00	29.996 
15:20	75.6	75.6	77.9	52	56.7	0	1	112	0.00	29.996 
15:25	75.6	75.6	77.9	53	57.2	0	1	112	0.00	29.996 
15:30	75.6	75.6	77.9	52	56.7	0	2	112	0.00	29.992 
15:35	75.6	75.6	77.9	54	57.8	0	2	112	0.00	29.992 
15:40	76.0	76.0	78.1	55	58.6	0	1	112	0.00	29.992 
15:45	77.0	77.0	78.7	54	59.1	1	3	112	0.00	29.982 
15:50	77.6	77.6	78.9	48	56.3	1	4	112	0.00	29.982 
15:55	77.7	77.7	78.9	47	55.8	1	3	338	0.00	29.982 
16:00	77.4	77.4	78.7	47	55.6	1	3	338	0.00	29.974 
16:05	77.4	77.4	78.8	49	56.7	0	3	270	0.00	29.974 
16:10	77.7	77.7	79.0	50	57.6	1	3	90	0.00	29.974 
16:15	78.3	78.3	79.4	49	57.5	0	3	90	0.00	29.974 
16:20	78.6	78.6	79.4	46	56.1	2	5	292	0.00	29.974 
16:25	78.6	78.6	79.4	46	56.1	1	3	292	0.00	29.974 
16:30	79.4	79.4	80.0	46	56.8	1	3	292	0.00	29.967 
16:35	79.9	79.9	80.4	46	57.2	1	3	292	0.00	29.967 
16:40	79.9	79.9	80.4	47	57.8	1	3	45	0.00	29.967 
16:45	79.2	79.2	79.9	47	57.2	0	2	45	0.00	29.966 
16:50	78.6	78.6	79.5	47	56.7	1	3	68	0.00	29.966 
16:55	78.5	78.5	79.4	46	56.0	2	5	270	0.00	29.966 
17:00	78.3	78.3	79.2	46	55.8	1	4	270	0.00	29.965 
17:05	77.9	77.9	79.0	47	56.0	0	2	270	0.00	29.965 
17:10	77.7	77.7	79.0	50	57.6	0	1	270	0.00	29.965 
17:15	77.9	77.9	79.2	50	57.7	0	1	270	0.00	29.959 
17:20	77.9	77.9	79.2	50	57.7	0	1	270	0.00	29.959 
17:25	77.7	77.7	79.0	49	57.0	0	2	270	0.00	29.959 
17:30	77.4	77.4	78.8	49	56.7	0	2	270	0.00	29.951 
17:35	77.0	77.0	78.6	50	56.9	0	2	270	0.00	29.951 
17:40	76.7	76.7	78.4	49	56.1	0	2	270	0.00	29.951 
17:45	76.7	76.7	78.4	50	56.6	0	2	270	0.00	29.948 
17:50	76.7	76.7	78.4	50	56.6	0	3	270	0.00	29.948 
17:55	76.8	76.8	78.5	51	57.3	1	3	68	0.00	29.948 
18:00	76.8	76.8	78.5	51	57.3	0	1	68	0.00	29.946 
18:05	76.8	76.8	78.5	50	56.7	0	3	68	0.00	29.946 
18:10	76.8	76.8	78.5	49	56.2	1	4	270	0.00	29.946 
18:15	76.7	76.7	78.4	50	56.6	1	3	248	0.00	29.946 
18:20	76.7	76.7	78.4	51	57.2	0	2	248	0.00	29.946 
18:25	76.7	76.7	78.4	51	57.2	0	1	248	0.00	29.946 
18:30	76.7	76.7	78.4	51	57.2	0	2	248	0.00	29.945 
18:35	76.8	76.8	78.5	52	57.8	0	2	248	0.00	29.945 
18:40	76.8	76.8	78.5	52	57.8	0	2	248	0.00	29.945 
18:45	76.8	76.8	78.5	52	57.8	0	1	248	0.00	29.939 
18:50	76.8	76.8	78.5	52	57.8	0	2	248	0.00	29.939 
18:55	76.8	76.8	78.5	50	56.7	1	2	248	0.00	29.939 
19:00	76.7	76.7	78.4	50	56.6	2	3	315	0.00	29.937 
19:05	76.8	76.8	78.5	50	56.7	0	3	315	0.00	29.937 
19:10	76.8	76.8	78.5	50	56.7	1	2	315	0.00	29.937 
19:15	76.8	76.8	78.5	50	56.7	0	1	315	0.00	29.929 
19:20	77.0	77.0	78.6	50	56.9	0	1	315	0.00	29.929 
19:25	77.2	77.2	78.7	50	57.1	0	3	315	0.00	29.929 
19:30	77.0	77.0	78.6	51	57.5	0	2	315	0.00	29.927 
19:35	76.8	76.8	78.5	52	57.8	0	2	315	0.00	29.927 
19:40	76.8	76.8	78.5	52	57.8	0	1	315	0.00	29.927 
19:45	76.7	76.7	78.5	52	57.7	0	1	315	0.00	29.926 
19:50	76.7	76.7	78.5	53	58.3	0	1	315	0.00	29.926 
19:55	76.7	76.7	78.5	53	58.3	1	3	315	0.00	29.926 
20:00	76.7	76.7	78.5	53	58.3	1	3	315	0.00	29.926 
20:05	76.3	76.3	78.2	52	57.4	1	4	270	0.00	29.926 
20:10	76.0	76.0	78.1	52	57.1	1	3	270	0.00	29.926 
20:15	75.8	75.8	78.0	53	57.4	1	2	270	0.00	29.921 
20:20	75.6	75.6	77.9	53	57.2	0	2	270	0.00	29.921 
20:25	75.4	75.4	77.8	53	57.1	0	2	270	0.00	29.921 
20:30	75.3	75.3	77.7	53	57.0	0	2	270	0.00	29.922 
20:35	75.3	75.3	77.7	54	57.5	0	2	270	0.00	29.922 
20:40	75.1	75.1	77.6	54	57.3	1	3	270	0.00	29.922 
20:45	74.9	74.9	74.9	55	57.6	1	3	270	0.00	29.922 
20:50	74.7	74.7	74.7	55	57.4	1	3	270	0.00	29.922 
20:55	74.7	74.7	74.7	56	57.9	0	2	270	0.00	29.922 
21:00	74.6	74.6	74.6	56	57.8	1	3	270	0.00	29.922 
21:05	74.4	74.4	74.4	56	57.7	1	3	270	0.00	29.922 
21:10	74.4	74.4	74.4	57	58.2	0	2	270	0.00	29.922 
21:15	74.2	74.2	74.2	57	58.0	0	4	270	0.00	29.916 
21:20	74.2	74.2	74.2	57	58.0	0	3	270	0.00	29.916 
21:25	74.0	74.0	74.0	58	58.3	0	2	270	0.00	29.916 
21:30	74.0	74.0	74.0	58	58.3	0	3	270	0.00	29.915 
21:35	73.9	73.9	73.9	58	58.2	0	2	270	0.00	29.915 
21:40	73.9	73.9	73.9	59	58.7	1	3	270	0.00	29.915 
21:45	73.7	73.7	73.7	59	58.5	1	3	270	0.00	29.914 
21:50	73.7	73.7	73.7	59	58.5	1	2	270	0.00	29.914 
21:55	73.5	73.5	73.5	60	58.7	0	1	270	0.00	29.914 
22:00	73.5	73.5	73.5	60	58.7	1	3	270	0.00	29.916 
22:05	73.3	73.3	73.3	61	59.0	1	4	270	0.00	29.916 
22:10	73.3	73.3	73.3	61	59.0	0	1	270	0.00	29.916 
22:15	73.2	73.2	73.2	59	58.0	0	2	270	0.00	29.916 
22:20	73.0	73.0	73.0	58	57.3	0	2	270	0.00	29.916 
22:25	73.0	73.0	73.0	55	55.9	1	3	270	0.00	29.916 
22:30	73.0	73.0	73.0	56	56.4	0	4	270	0.00	29.913 
22:35	73.0	73.0	73.0	55	55.9	1	3	248	0.00	29.913 
22:40	73.0	73.0	73.0	55	55.9	0	2	248	0.00	29.913 
22:45	73.0	73.0	73.0	56	56.4	1	2	248	0.00	29.905 
22:50	73.0	73.0	73.0	56	56.4	0	1	248	0.00	29.905 
22:55	72.8	72.8	72.8	57	56.7	0	2	315	0.00	29.905 
23:00	72.7	72.7	72.7	57	56.6	0	1	315	0.00	29.904 
23:05	72.5	72.5	72.5	58	56.9	0	1	315	0.00	29.904 
23:10	72.5	72.5	72.5	58	56.9	1	3	270	0.00	29.904 
23:15	72.3	72.3	72.3	59	57.2	1	3	270	0.00	29.900 
23:20	72.1	72.1	72.1	59	57.0	0	1	270	0.00	29.900 
23:25	72.0	72.0	72.0	60	57.3	0	1	248	0.00	29.900 
23:30	71.8	71.8	71.8	62	58.1	0	1	248	0.00	29.901 
23:35	71.5	71.5	71.5	63	58.2	0	1	248	0.00	29.901 
23:40	71.3	71.3	71.3	65	58.9	0	2	270	0.00	29.901 
23:45	70.9	70.9	70.9	67	59.4	0	1	270	0.00	29.903 
23:50	70.4	70.4	70.4	70	60.1	0	1	270	0.00	29.903 
23:55	69.9	69.9	69.9	73	60.8	0	1	270	0.00	29.903 

CoCoRaHS
IN-AL-39
A2 Web Hosting
Creative Commons License
GoDaddy
search engine by freefind advanced

loaded 2018-11-19 19:26:04 • last modified 2010-11-18 10:43:29
Privacy PolicyDisclaimer
• wx.awcolley.com is powered by PmWiki v.2002016 •
• all content (unless otherwise noted) © 2018 A W Colley